Worcester, New York
Current Conditions -  °F | °C
As of 11:55 AM on Thursday 30 Oct 2014 (Local Time) from KNY0 Reporting Station
Overcast Overcast  
Wind Chill: 42°   Ceiling: 2700
Heat Index: 46°   Visibility: 10mi
Dew Point: 35°   Wind: 7mph
Humidity: 68%   Direction: 280°W
Pressure: 29.99"   Gusts: NA
Location:  42.59°N, 74.75°W
Report Text: KNY0 301555Z AUTO 28006KT 10SM BKN027 BKN032 OVC038 08/02 A2999 RMK AO2 T00750019
Loading
Personal Weather Stations






























Interactive Weather Map
Tropical Storm Tracking
New forecast layout! Learn more

10-Day Weather Forecast

Advertisements
Track Severe Weather on mobile